Time;durP1;ratioP1;P1;durP2;ratioP2;P2;SDS_P1;SDS_P2;PMS_P1;PMS_P2;Temp;Humidity;BMP_temperature;BMP_pressure;BME280_temperature;BME280_humidity;BME280_pressure;Samples;Min_cycle;Max_cycle;Signal;HPM_P1;HPM_P2
2023/05/18 00:00:59;;;;;;;;;;;;;;;-142.75;100.00;78775.59;5086348;28;19923;-60
2023/05/18 00:03:24;;;;;;;;;;;;;;;-142.75;100.00;78769.69;5089114;28;20380;-64
2023/05/18 00:05:49;;;;;;;;;;;;;;;-142.75;100.00;78771.66;5085849;28;19920;-65
2023/05/18 00:08:14;;;;;;;;;;;;;;;-142.75;100.00;78773.63;5085754;28;20410;-61
2023/05/18 00:10:40;;;;;;;;;;;;;;;-142.75;100.00;78781.50;5086849;28;20002;-65
2023/05/18 00:13:07;;;;;;;;;;;;;;;-142.75;100.00;78779.53;5085860;28;19915;-65
2023/05/18 00:15:32;;;;;;;;;;;;;;;-142.75;100.00;78777.56;5085584;28;19924;-64
2023/05/18 00:17:58;;;;;;;;;;;;;;;-142.75;100.00;78785.44;5085876;28;19916;-65
2023/05/18 00:20:25;;;;;;;;;;;;;;;-142.75;100.00;78789.38;5084839;28;19916;-62
2023/05/18 00:22:50;;;;;;;;;;;;;;;-142.75;100.00;78787.41;5085676;28;19934;-64
2023/05/18 00:25:15;;;;;;;;;;;;;;;-142.75;100.00;78791.34;5085717;28;19923;-63
2023/05/18 00:27:41;;;;;;;;;;;;;;;-142.75;100.00;78795.28;5085810;28;19916;-62
2023/05/18 00:30:06;;;;;;;;;;;;;;;-142.75;100.00;78811.03;5084575;28;19916;-62
2023/05/18 00:32:32;;;;;;;;;;;;;;;-142.75;100.00;78811.03;5085603;28;19924;-62
2023/05/18 00:34:57;;;;;;;;;;;;;;;-142.75;100.00;78795.28;5086041;28;19951;-64
2023/05/18 00:37:22;;;;;;;;;;;;;;;-142.75;100.00;78799.22;5084499;28;19920;-62
2023/05/18 00:39:47;;;;;;;;;;;;;;;-142.75;100.00;78813.00;5094698;28;19954;-63
2023/05/18 00:42:13;;;;;;;;;;;;;;;-142.75;100.00;78814.97;5085483;28;19916;-66
2023/05/18 00:44:38;;;;;;;;;;;;;;;-142.75;100.00;78818.91;5085347;28;20375;-63
2023/05/18 00:47:03;;;;;;;;;;;;;;;-142.75;100.00;78826.81;5085345;28;19922;-62
2023/05/18 00:49:28;;;;;;;;;;;;;;;-142.75;100.00;78813.00;5089462;28;20029;-63
2023/05/18 00:51:54;;;;;;;;;;;;;;;-142.75;100.00;78813.00;5085628;28;19967;-59
2023/05/18 00:54:19;;;;;;;;;;;;;;;-142.75;100.00;78816.94;5090085;28;19954;-58
2023/05/18 00:56:47;;;;;;;;;;;;;;;-142.75;100.00;78828.78;5085264;28;19916;-63
2023/05/18 00:59:12;;;;;;;;;;;;;;;-142.75;100.00;78816.94;5085666;28;20153;-62
2023/05/18 01:01:42;;;;;;;;;;;;;;;-142.75;100.00;78811.03;5085552;28;19968;-63
2023/05/18 01:04:09;;;;;;;;;;;;;;;-142.75;100.00;78809.06;5085313;28;19920;-64
2023/05/18 01:06:36;;;;;;;;;;;;;;;-142.75;100.00;78809.06;5085232;28;20010;-64
2023/05/18 01:09:03;;;;;;;;;;;;;;;-142.75;100.00;78818.91;5085442;28;20387;-64
2023/05/18 01:11:31;;;;;;;;;;;;;;;-142.75;100.00;78822.88;5084752;28;19916;-54
2023/05/18 01:14:02;;;;;;;;;;;;;;;-142.75;100.00;78814.97;5090664;28;19967;-63
2023/05/18 01:16:33;;;;;;;;;;;;;;;-142.75;100.00;78809.06;5085148;28;20398;-60
2023/05/18 01:19:18;;;;;;;;;;;;;;;-142.75;100.00;78822.88;5082744;28;20303;-61
2023/05/18 01:22:02;;;;;;;;;;;;;;;-142.75;100.00;78822.88;5076147;28;19916;-64
2023/05/18 01:24:37;;;;;;;;;;;;;;;-142.75;100.00;78807.09;5085040;28;19920;-58
2023/05/18 01:27:05;;;;;;;;;;;;;;;-142.75;100.00;78807.09;5084307;28;19920;-63
2023/05/18 01:29:30;;;;;;;;;;;;;;;-142.75;100.00;78797.25;5084218;28;20409;-63
2023/05/18 01:31:56;;;;;;;;;;;;;;;-142.75;100.00;78789.38;5085660;28;19923;-61
2023/05/18 01:34:21;;;;;;;;;;;;;;;-142.75;100.00;78795.28;5085196;28;19924;-65
2023/05/18 01:36:46;;;;;;;;;;;;;;;-142.75;100.00;78803.16;5084988;28;20587;-67
2023/05/18 01:39:12;;;;;;;;;;;;;;;-142.75;100.00;78791.34;5084165;28;19926;-64
2023/05/18 01:41:40;;;;;;;;;;;;;;;-142.75;100.00;78805.13;5085752;28;19922;-61
2023/05/18 01:44:11;;;;;;;;;;;;;;;-142.75;100.00;78795.28;5084640;28;20402;-63
2023/05/18 01:46:40;;;;;;;;;;;;;;;-142.75;100.00;78816.94;5084911;28;19924;-63
2023/05/18 01:49:12;;;;;;;;;;;;;;;-142.75;100.00;78822.88;5085200;28;19916;-64
2023/05/18 01:51:40;;;;;;;;;;;;;;;-142.75;100.00;78807.09;5085999;28;19962;-64
2023/05/18 01:54:06;;;;;;;;;;;;;;;-142.75;100.00;78824.84;5088760;28;20086;-64
2023/05/18 01:56:32;;;;;;;;;;;;;;;-142.75;100.00;78816.94;5088511;28;19915;-63
2023/05/18 01:58:58;;;;;;;;;;;;;;;-142.75;100.00;78830.75;5087772;28;20018;-63
2023/05/18 02:01:23;;;;;;;;;;;;;;;-142.75;100.00;78830.75;5092986;28;19922;-63
2023/05/18 02:03:50;;;;;;;;;;;;;;;-142.75;100.00;78830.75;5088035;28;19923;-64
2023/05/18 02:06:15;;;;;;;;;;;;;;;-142.75;100.00;78826.81;5087250;28;20275;-64
2023/05/18 02:08:40;;;;;;;;;;;;;;;-142.75;100.00;78826.81;5088675;28;19916;-60
2023/05/18 02:11:05;;;;;;;;;;;;;;;-142.75;100.00;78838.63;5089081;28;20516;-65
2023/05/18 02:13:31;;;;;;;;;;;;;;;-142.75;100.00;78826.81;5088676;28;19920;-64
2023/05/18 02:15:56;;;;;;;;;;;;;;;-142.75;100.00;78846.50;5088167;28;19916;-62
2023/05/18 02:18:21;;;;;;;;;;;;;;;-142.75;100.00;78854.38;5088071;28;19923;-64
2023/05/18 02:20:47;;;;;;;;;;;;;;;-142.75;100.00;78848.47;5088201;28;20159;-65
2023/05/18 02:23:13;;;;;;;;;;;;;;;-142.75;100.00;78828.78;5088084;28;19920;-63
2023/05/18 02:25:38;;;;;;;;;;;;;;;-142.75;100.00;78842.56;5087833;28;19927;-64
2023/05/18 02:28:03;;;;;;;;;;;;;;;-142.75;100.00;78822.88;5088016;28;19966;-62
2023/05/18 02:30:32;;;;;;;;;;;;;;;-142.75;100.00;78828.78;5086603;28;19916;-65
2023/05/18 02:32:57;;;;;;;;;;;;;;;-142.75;100.00;78844.53;5094104;28;19923;-63
2023/05/18 02:35:22;;;;;;;;;;;;;;;-142.75;100.00;78848.47;5086483;28;19920;-65
2023/05/18 02:37:48;;;;;;;;;;;;;;;-142.75;100.00;78872.09;5093087;28;20026;-66
2023/05/18 02:40:14;;;;;;;;;;;;;;;-142.75;100.00;78876.03;5088707;28;19969;-63
2023/05/18 02:42:40;;;;;;;;;;;;;;;-142.75;100.00;78858.31;5087753;28;20599;-62
2023/05/18 02:45:06;;;;;;;;;;;;;;;-142.75;100.00;78850.44;5087203;28;19924;-65
2023/05/18 02:47:31;;;;;;;;;;;;;;;-142.75;100.00;78852.41;5087611;28;19916;-64
2023/05/18 02:49:56;;;;;;;;;;;;;;;-142.75;100.00;78850.44;5086501;28;19938;-63
2023/05/18 02:52:22;;;;;;;;;;;;;;;-142.75;100.00;78870.13;5086224;28;20327;-61
2023/05/18 02:54:47;;;;;;;;;;;;;;;-142.75;100.00;78881.94;5087199;28;19991;-64
2023/05/18 02:57:13;;;;;;;;;;;;;;;-142.75;100.00;78879.97;5087389;28;19920;-63
2023/05/18 02:59:38;;;;;;;;;;;;;;;-142.75;100.00;78866.19;5087547;28;20383;-64
2023/05/18 03:02:03;;;;;;;;;;;;;;;-142.75;100.00;78866.19;5088286;28;20653;-61
2023/05/18 03:04:29;;;;;;;;;;;;;;;-142.75;100.00;78870.13;5087007;28;19927;-62
2023/05/18 03:06:56;;;;;;;;;;;;;;;-142.75;100.00;78878.00;5087348;28;19916;-62
2023/05/18 03:09:21;;;;;;;;;;;;;;;-142.75;100.00;78876.03;5087415;28;19923;-63
2023/05/18 03:11:47;;;;;;;;;;;;;;;-142.75;100.00;78889.81;5087585;28;19916;-59
2023/05/18 03:14:12;;;;;;;;;;;;;;;-142.75;100.00;78891.78;5087198;28;19928;-63
2023/05/18 03:16:38;;;;;;;;;;;;;;;-142.75;100.00;78878.00;5087014;28;19916;-65
2023/05/18 03:19:03;;;;;;;;;;;;;;;-142.75;100.00;78878.00;5087224;28;20001;-64
2023/05/18 03:21:32;;;;;;;;;;;;;;;-142.75;100.00;78874.06;5086979;28;19916;-60
2023/05/18 03:24:06;;;;;;;;;;;;;;;-142.75;100.00;78881.94;5085341;28;19973;-60
2023/05/18 03:26:32;;;;;;;;;;;;;;;-142.75;100.00;78876.03;5086168;28;19942;-62
2023/05/18 03:28:57;;;;;;;;;;;;;;;-142.75;100.00;78854.38;5087049;28;19924;-64
2023/05/18 03:31:23;;;;;;;;;;;;;;;-142.75;100.00;78856.34;5087137;28;19920;-60
2023/05/18 03:33:48;;;;;;;;;;;;;;;-142.75;100.00;78874.06;5086527;28;19916;-62
2023/05/18 03:36:15;;;;;;;;;;;;;;;-142.75;100.00;78868.16;5085187;28;20349;-65
2023/05/18 03:38:44;;;;;;;;;;;;;;;-142.75;100.00;78874.06;5088230;28;19966;-63
2023/05/18 03:41:09;;;;;;;;;;;;;;;-142.75;100.00;78891.78;5087499;28;21509;-62
2023/05/18 03:43:34;;;;;;;;;;;;;;;-142.75;100.00;78885.88;5086357;28;19916;-64
2023/05/18 03:46:00;;;;;;;;;;;;;;;-142.75;100.00;78881.94;5101782;28;19928;-62
2023/05/18 03:48:25;;;;;;;;;;;;;;;-142.75;100.00;78883.91;5086892;28;19916;-63
2023/05/18 03:50:51;;;;;;;;;;;;;;;-142.75;100.00;78893.78;5084333;28;19924;-64
2023/05/18 03:53:20;;;;;;;;;;;;;;;-142.75;100.00;78897.72;5089182;28;20268;-62
2023/05/18 03:55:45;;;;;;;;;;;;;;;-142.75;100.00;78889.81;5085164;28;20265;-63
2023/05/18 03:58:11;;;;;;;;;;;;;;;-142.75;100.00;78885.88;5090624;28;19931;-64
2023/05/18 04:00:36;;;;;;;;;;;;;;;-142.75;100.00;78881.94;5086545;28;19923;-64
2023/05/18 04:03:05;;;;;;;;;;;;;;;-142.75;100.00;78887.84;5086182;28;19916;-62
2023/05/18 04:05:30;;;;;;;;;;;;;;;-142.75;100.00;78891.78;5089160;28;19920;-65
2023/05/18 04:07:56;;;;;;;;;;;;;;;-142.75;100.00;78879.97;5091769;28;19923;-60
2023/05/18 04:10:21;;;;;;;;;;;;;;;-142.75;100.00;78878.00;5086892;28;19923;-64
2023/05/18 04:12:47;;;;;;;;;;;;;;;-142.75;100.00;78887.84;5085713;28;20135;-59
2023/05/18 04:15:13;;;;;;;;;;;;;;;-142.75;100.00;78881.94;5085575;28;20487;-64
2023/05/18 04:17:42;;;;;;;;;;;;;;;-142.75;100.00;78881.94;5085829;28;19958;-66
2023/05/18 04:20:11;;;;;;;;;;;;;;;-142.75;100.00;78895.75;5094208;28;19916;-63
2023/05/18 04:22:45;;;;;;;;;;;;;;;-142.75;100.00;78897.72;5085881;28;19923;-64
2023/05/18 04:25:10;;;;;;;;;;;;;;;-142.75;100.00;78895.75;5085702;28;19920;-62
2023/05/18 04:27:35;;;;;;;;;;;;;;;-142.75;100.00;78893.78;5085659;28;20085;-60
2023/05/18 04:30:01;;;;;;;;;;;;;;;-142.75;100.00;78893.78;5084367;28;19937;-62
2023/05/18 04:32:29;;;;;;;;;;;;;;;-142.75;100.00;78897.72;5090866;28;19922;-63
2023/05/18 04:34:57;;;;;;;;;;;;;;;-142.75;100.00;78897.72;5084407;28;19916;-63
2023/05/18 04:37:22;;;;;;;;;;;;;;;-142.75;100.00;78901.66;5086183;28;19939;-62
2023/05/18 04:39:48;;;;;;;;;;;;;;;-142.75;100.00;78891.78;5086191;28;19924;-65
2023/05/18 04:42:13;;;;;;;;;;;;;;;-142.75;100.00;78885.88;5091119;28;19916;-62
2023/05/18 04:44:38;;;;;;;;;;;;;;;-142.75;100.00;78901.66;5085681;28;19920;-62
2023/05/18 04:47:07;;;;;;;;;;;;;;;-142.75;100.00;78909.53;5085813;28;19922;-65
2023/05/18 04:49:32;;;;;;;;;;;;;;;-142.75;100.00;78925.28;5085754;28;19920;-64
2023/05/18 04:51:58;;;;;;;;;;;;;;;-142.75;100.00;78913.47;5085676;28;19970;-60
2023/05/18 04:54:29;;;;;;;;;;;;;;;-142.75;100.00;78917.41;5085636;28;19959;-63
2023/05/18 04:56:55;;;;;;;;;;;;;;;-142.75;100.00;78899.69;5084881;28;20004;-63
2023/05/18 04:59:24;;;;;;;;;;;;;;;-142.75;100.00;78899.69;5089154;28;20441;-61
2023/05/18 05:01:50;;;;;;;;;;;;;;;-142.75;100.00;78895.75;5085525;28;20356;-61
2023/05/18 05:04:15;;;;;;;;;;;;;;;-142.75;100.00;78897.72;5085346;28;19978;-63
2023/05/18 05:06:40;;;;;;;;;;;;;;;-142.75;100.00;78874.06;5083792;28;19916;-64
2023/05/18 05:09:06;;;;;;;;;;;;;;;-142.75;100.00;78878.00;5085450;28;19942;-62
2023/05/18 05:11:31;;;;;;;;;;;;;;;-142.75;100.00;78854.38;5084967;28;20015;-62
2023/05/18 05:13:56;;;;;;;;;;;;;;;-142.75;100.00;78856.34;5085317;28;20445;-64
2023/05/18 05:16:21;;;;;;;;;;;;;;;-142.75;100.00;78854.38;5083811;28;20462;-61
2023/05/18 05:18:47;;;;;;;;;;;;;;;-142.75;100.00;78856.34;5085188;28;19916;-63
2023/05/18 05:21:12;;;;;;;;;;;;;;;-142.75;100.00;78840.59;5085465;28;19925;-63
2023/05/18 05:23:37;;;;;;;;;;;;;;;-142.75;100.00;78834.69;5084725;28;19916;-64
2023/05/18 05:26:02;;;;;;;;;;;;;;;-142.75;100.00;78834.69;5084760;28;19999;-63
2023/05/18 05:28:28;;;;;;;;;;;;;;;-142.75;100.00;78832.72;5089167;28;19920;-59
2023/05/18 05:30:53;;;;;;;;;;;;;;;-142.75;100.00;78816.94;5097903;28;19924;-65
2023/05/18 05:33:18;;;;;;;;;;;;;;;-142.75;100.00;78803.16;5087810;28;20058;-63
2023/05/18 05:35:43;;;;;;;;;;;;;;;-142.75;100.00;78773.63;5088486;28;19916;-61
2023/05/18 05:38:09;;;;;;;;;;;;;;;-142.75;100.00;78765.75;5088918;28;19969;-64
2023/05/18 05:40:34;;;;;;;;;;;;;;;-142.75;100.00;78740.13;5090058;28;19916;-64
2023/05/18 05:42:59;;;;;;;;;;;;;;;-142.75;100.00;78732.25;5088708;28;20338;-64
2023/05/18 05:45:27;;;;;;;;;;;;;;;-142.75;100.00;78710.59;5088818;28;20505;-64
2023/05/18 05:47:52;;;;;;;;;;;;;;;-142.75;100.00;78685.00;5092881;28;19916;-63
2023/05/18 05:50:17;;;;;;;;;;;;;;;-142.75;100.00;78681.06;5090050;28;19916;-68
2023/05/18 05:52:42;;;;;;;;;;;;;;;-142.75;100.00;78667.25;5085150;28;19916;-61
2023/05/18 05:55:08;;;;;;;;;;;;;;;-142.75;100.00;78651.50;5087452;28;19916;-64
2023/05/18 05:57:33;;;;;;;;;;;;;;;-142.75;100.00;78635.75;5087018;28;19916;-64
2023/05/18 05:59:58;;;;;;;;;;;;;;;-142.75;100.00;78604.25;5092758;28;19923;-61
2023/05/18 06:02:23;;;;;;;;;;;;;;;-142.75;100.00;78582.59;5093415;28;19916;-65
2023/05/18 06:04:49;;;;;;;;;;;;;;;-142.75;100.00;78574.69;5085518;28;20338;-63
2023/05/18 06:07:14;;;;;;;;;;;;;;;-142.75;100.00;78584.56;5087838;28;19961;-64
2023/05/18 06:09:39;;;;;;;;;;;;;;;-142.75;100.00;78582.59;5088602;28;19920;-62
2023/05/18 06:12:05;;;;;;;;;;;;;;;-142.75;100.00;78576.66;5088076;28;20394;-61
2023/05/18 06:14:30;;;;;;;;;;;;;;;-142.75;100.00;78574.69;5087925;28;19950;-64
2023/05/18 06:16:55;;;;;;;;;;;;;;;-142.75;100.00;78564.84;5086401;28;20564;-62
2023/05/18 06:19:20;;;;;;;;;;;;;;;-142.75;100.00;78568.78;5087342;28;19916;-63
2023/05/18 06:21:46;;;;;;;;;;;;;;;-142.75;100.00;78549.09;5084836;28;19966;-63
2023/05/18 06:24:11;;;;;;;;;;;;;;;-142.75;100.00;78558.94;5083445;28;19955;-64
2023/05/18 06:26:36;;;;;;;;;;;;;;;-142.75;100.00;78551.06;5086885;28;20011;-63
2023/05/18 06:29:01;;;;;;;;;;;;;;;-142.75;100.00;78590.47;5085650;28;19916;-63
2023/05/18 06:31:27;;;;;;;;;;;;;;;-142.75;100.00;78604.25;5084331;28;19931;-64
2023/05/18 06:33:52;;;;;;;;;;;;;;;-142.75;100.00;78584.56;5085437;28;20549;-63
2023/05/18 06:36:17;;;;;;;;;;;;;;;-142.75;100.00;78574.69;5086471;28;19908;-62
2023/05/18 06:38:42;;;;;;;;;;;;;;;-142.75;100.00;78543.19;5085740;28;20312;-63
2023/05/18 06:41:08;;;;;;;;;;;;;;;-142.75;100.00;78535.31;5080146;28;19950;-63
2023/05/18 06:43:33;;;;;;;;;;;;;;;-142.75;100.00;78493.97;5084826;28;19934;-64
2023/05/18 06:45:58;;;;;;;;;;;;;;;-142.75;100.00;78444.72;5087972;28;19959;-61
2023/05/18 06:48:24;;;;;;;;;;;;;;;-142.75;100.00;78448.66;5086832;28;19923;-65
2023/05/18 06:50:49;;;;;;;;;;;;;;;-142.75;100.00;78452.59;5086815;28;19924;-62
2023/05/18 06:53:15;;;;;;;;;;;;;;;-142.75;100.00;78438.81;5086173;28;19923;-62
2023/05/18 06:55:40;;;;;;;;;;;;;;;-142.75;100.00;78440.78;5084917;28;19928;-62
2023/05/18 06:58:05;;;;;;;;;;;;;;;-142.75;100.00;78472.28;5082878;28;19923;-63
2023/05/18 07:00:31;;;;;;;;;;;;;;;-142.75;100.00;78474.25;5085412;28;19916;-62
2023/05/18 07:02:56;;;;;;;;;;;;;;;-142.75;100.00;78470.31;5089714;28;19916;-65
2023/05/18 07:05:22;;;;;;;;;;;;;;;-142.75;100.00;78493.97;5086678;28;19920;-63
2023/05/18 07:07:47;;;;;;;;;;;;;;;-142.75;100.00;78456.53;5086822;28;19943;-61
2023/05/18 07:10:13;;;;;;;;;;;;;;;-142.75;100.00;78411.25;5087091;28;19920;-64
2023/05/18 07:12:38;;;;;;;;;;;;;;;-142.75;97.25;78401.38;5087882;28;19934;-62
2023/05/18 07:15:03;;;;;;;;;;;;;;;-142.75;95.52;78399.44;5086456;28;19942;-62
2023/05/18 07:17:29;;;;;;;;;;;;;;;-142.75;96.90;78363.97;5086176;28;19916;-62
2023/05/18 07:19:54;;;;;;;;;;;;;;;-142.75;95.13;78350.19;5084653;28;19916;-60
2023/05/18 07:22:19;;;;;;;;;;;;;;;-142.75;92.35;78338.38;5085158;28;19998;-64
2023/05/18 07:24:44;;;;;;;;;;;;;;;-142.75;92.05;78377.75;5086007;28;19920;-64
2023/05/18 07:27:09;;;;;;;;;;;;;;;-142.75;91.00;78377.75;5084555;28;19923;-65
2023/05/18 07:29:35;;;;;;;;;;;;;;;-142.75;92.27;78373.81;5086927;28;19916;-63
2023/05/18 07:32:00;;;;;;;;;;;;;;;-142.75;92.06;78377.75;5086142;28;19924;-65
2023/05/18 07:34:26;;;;;;;;;;;;;;;-142.75;94.84;78419.13;5086692;28;19920;-64
2023/05/18 07:36:51;;;;;;;;;;;;;;;-142.75;93.19;78452.59;5086622;28;19922;-63
2023/05/18 07:39:27;;;;;;;;;;;;;;;-142.75;94.64;78454.56;5085378;28;19990;-64
2023/05/18 07:41:52;;;;;;;;;;;;;;;-142.75;97.52;78458.50;5082784;28;20292;-63
2023/05/18 07:44:17;;;;;;;;;;;;;;;-142.75;96.41;78484.09;5084643;28;19933;-64
2023/05/18 07:46:42;;;;;;;;;;;;;;;-142.75;96.06;78472.28;5086320;28;20006;-62
2023/05/18 07:49:07;;;;;;;;;;;;;;;-142.75;94.92;78491.97;5090672;28;19922;-63
2023/05/18 07:51:33;;;;;;;;;;;;;;;-142.75;96.56;78452.59;5086155;28;19924;-64
2023/05/18 07:53:58;;;;;;;;;;;;;;;-142.75;95.09;78464.41;5086140;28;19951;-65
2023/05/18 07:56:24;;;;;;;;;;;;;;;-142.75;94.22;78474.25;5092980;28;19919;-63
2023/05/18 07:58:50;;;;;;;;;;;;;;;-142.75;96.71;78444.72;5097840;28;19916;-65
2023/05/18 08:01:15;;;;;;;;;;;;;;;-142.75;97.87;78405.34;5086014;28;19916;-64
2023/05/18 08:03:41;;;;;;;;;;;;;;;-142.75;97.25;78401.38;5086367;28;19970;-62
2023/05/18 08:06:06;;;;;;;;;;;;;;;-142.75;96.68;78413.22;5085990;28;19920;-64
2023/05/18 08:08:31;;;;;;;;;;;;;;;-142.75;96.44;78389.56;5086334;28;20280;-63
2023/05/18 08:10:57;;;;;;;;;;;;;;;-142.75;94.49;78397.44;5086488;28;20333;-62
2023/05/18 08:13:23;;;;;;;;;;;;;;;-142.75;95.79;78399.44;5085803;28;19920;-62
2023/05/18 08:15:48;;;;;;;;;;;;;;;-142.75;94.68;78395.47;5083893;28;19969;-62
2023/05/18 08:18:13;;;;;;;;;;;;;;;-142.75;92.80;78405.34;5085493;28;19924;-62
2023/05/18 08:20:38;;;;;;;;;;;;;;;-142.75;91.40;78381.69;5085532;28;19916;-63
2023/05/18 08:23:04;;;;;;;;;;;;;;;-142.75;94.33;78367.91;5084105;28;19920;-61
2023/05/18 08:25:29;;;;;;;;;;;;;;;-142.75;93.50;78356.09;5085158;28;19928;-61
2023/05/18 08:27:54;;;;;;;;;;;;;;;-142.75;92.81;78318.69;5083739;28;19924;-65
2023/05/18 08:30:20;;;;;;;;;;;;;;;-142.75;96.26;78310.81;5081462;28;20457;-63
2023/05/18 08:32:46;;;;;;;;;;;;;;;-142.75;93.16;78302.94;5084638;28;20438;-64
2023/05/18 08:35:11;;;;;;;;;;;;;;;-142.75;92.76;78308.84;5083351;28;20349;-60
2023/05/18 08:37:37;;;;;;;;;;;;;;;-142.75;91.79;78255.66;5085571;28;20627;-63
2023/05/18 08:40:03;;;;;;;;;;;;;;;-142.75;90.72;78216.28;5084489;28;19969;-63
2023/05/18 08:42:32;;;;;;;;;;;;;;;-142.75;99.80;78153.25;5083176;28;19920;-63
2023/05/18 08:45:06;;;;;;;;;;;;;;;-142.75;97.90;78094.19;5085289;28;20384;-65
2023/05/18 08:47:33;;;;;;;;;;;;;;;-142.75;94.00;78058.72;5087755;28;19916;-65
2023/05/18 08:50:01;;;;;;;;;;;;;;;-142.75;88.87;78019.34;5087275;28;19924;-65
2023/05/18 08:52:26;;;;;;;;;;;;;;;-142.75;87.38;78035.09;5085777;28;20290;-65
2023/05/18 08:54:53;;;;;;;;;;;;;;;-142.75;87.40;78039.03;5094580;28;19923;-63
2023/05/18 08:57:20;;;;;;;;;;;;;;;-142.75;87.22;77972.09;5085487;28;19923;-64
2023/05/18 08:59:46;;;;;;;;;;;;;;;-142.75;83.54;77995.72;5084075;28;19965;-64
2023/05/18 09:02:12;;;;;;;;;;;;;;;-142.75;83.26;78017.38;5087810;28;20333;-64
2023/05/18 09:04:37;;;;;;;;;;;;;;;-142.75;80.98;78019.34;5088578;28;20416;-62
2023/05/18 09:07:03;;;;;;;;;;;;;;;-142.75;85.09;78007.53;5088540;28;20011;-64
2023/05/18 09:09:29;;;;;;;;;;;;;;;-142.75;80.93;78027.22;5100648;28;19919;-62
2023/05/18 09:11:56;;;;;;;;;;;;;;;-142.75;80.08;77966.19;5093828;28;19959;-63
2023/05/18 09:14:24;;;;;;;;;;;;;;;-142.75;80.38;77956.34;5088680;28;19939;-60
2023/05/18 09:16:50;;;;;;;;;;;;;;;-142.75;84.00;77909.06;5089235;28;19963;-65
2023/05/18 09:19:15;;;;;;;;;;;;;;;-142.75;79.68;77920.91;5089207;28;20377;-62
2023/05/18 09:21:40;;;;;;;;;;;;;;;-142.75;77.83;77956.34;5088099;28;19916;-65
2023/05/18 09:24:06;;;;;;;;;;;;;;;-142.75;78.43;77915.00;5089108;28;19943;-64
2023/05/18 09:26:31;;;;;;;;;;;;;;;-142.75;79.56;77954.38;5089015;28;19916;-64
2023/05/18 09:28:58;;;;;;;;;;;;;;;-142.75;80.50;77948.47;5089224;28;19923;-64
2023/05/18 09:31:23;;;;;;;;;;;;;;;-142.75;78.34;77928.78;5087278;28;19969;-64
2023/05/18 09:33:50;;;;;;;;;;;;;;;-142.75;79.22;77915.00;5089291;28;20341;-64
2023/05/18 09:36:16;;;;;;;;;;;;;;;-142.75;76.79;77903.16;5091243;28;20276;-64
2023/05/18 09:38:44;;;;;;;;;;;;;;;-142.75;78.71;77857.88;5089300;28;19923;-64
2023/05/18 09:41:11;;;;;;;;;;;;;;;-142.75;76.80;77871.66;5088313;28;19916;-67
2023/05/18 09:43:36;;;;;;;;;;;;;;;-142.75;78.44;77850.00;5087658;28;19920;-65
2023/05/18 09:46:05;;;;;;;;;;;;;;;-142.75;77.82;77853.94;5088820;28;20280;-64
2023/05/18 09:48:30;;;;;;;;;;;;;;;-142.75;78.29;77826.38;5088885;28;19924;-63
2023/05/18 09:50:57;;;;;;;;;;;;;;;-142.75;75.65;77830.31;5092215;28;19986;-62
2023/05/18 09:53:23;;;;;;;;;;;;;;;-142.75;75.09;77802.75;5094338;28;19924;-64
2023/05/18 09:55:48;;;;;;;;;;;;;;;-142.75;75.29;77804.72;5088355;28;19916;-66
2023/05/18 09:58:14;;;;;;;;;;;;;;;-142.75;77.95;77810.63;5088617;28;19956;-64
2023/05/18 10:00:41;;;;;;;;;;;;;;;-142.75;76.06;77810.63;5087531;28;19958;-65
2023/05/18 10:03:15;;;;;;;;;;;;;;;-142.75;74.78;77853.94;5088421;28;19916;-63
2023/05/18 10:05:40;;;;;;;;;;;;;;;-142.75;77.41;77859.84;5088549;28;19927;-66
2023/05/18 10:08:06;;;;;;;;;;;;;;;-142.75;78.64;77846.06;5088485;28;20330;-64
2023/05/18 10:10:31;;;;;;;;;;;;;;;-142.75;81.67;77808.66;5088487;28;19916;-65
2023/05/18 10:12:57;;;;;;;;;;;;;;;-142.75;77.09;77759.44;5088481;28;20407;-64
2023/05/18 10:15:23;;;;;;;;;;;;;;;-142.75;75.05;77753.53;5086781;28;20462;-63
2023/05/18 10:17:49;;;;;;;;;;;;;;;-142.75;73.86;77759.44;5088406;28;19916;-65
2023/05/18 10:20:19;;;;;;;;;;;;;;;-142.75;75.16;77743.69;5088791;28;20407;-63
2023/05/18 10:22:46;;;;;;;;;;;;;;;-142.75;73.52;77678.69;5088976;28;19995;-64
2023/05/18 10:25:16;;;;;;;;;;;;;;;-142.75;70.90;77720.03;5088338;28;20372;-66
2023/05/18 10:27:42;;;;;;;;;;;;;;;-142.75;71.61;77810.63;5088275;28;20383;-63
2023/05/18 10:30:08;;;;;;;;;;;;;;;-142.75;72.68;77830.31;5087070;28;20371;-65
2023/05/18 10:32:34;;;;;;;;;;;;;;;-142.75;77.27;77771.25;5088476;28;19916;-64
2023/05/18 10:35:00;;;;;;;;;;;;;;;-142.75;77.12;77735.81;5088514;28;19916;-65
2023/05/18 10:37:29;;;;;;;;;;;;;;;-142.75;74.44;77731.88;5088198;28;20107;-64
2023/05/18 10:39:54;;;;;;;;;;;;;;;-142.75;72.79;77806.69;5088893;28;20436;-64
2023/05/18 10:42:21;;;;;;;;;;;;;;;-142.75;70.94;77820.47;5088035;28;19920;-63
2023/05/18 10:44:46;;;;;;;;;;;;;;;-142.75;74.90;77814.56;5088188;28;19920;-64
2023/05/18 10:47:13;;;;;;;;;;;;;;;-142.75;73.46;77814.56;5088101;28;19916;-64
2023/05/18 10:49:39;;;;;;;;;;;;;;;-142.75;75.85;77802.75;5087063;28;19931;-65
2023/05/18 10:52:05;;;;;;;;;;;;;;;-142.75;77.00;77753.53;5088034;28;19916;-64
2023/05/18 10:54:30;;;;;;;;;;;;;;;-142.75;74.85;77743.69;5088314;28;19969;-64
2023/05/18 10:56:56;;;;;;;;;;;;;;;-142.75;76.74;77729.88;5088241;28;19921;-64
2023/05/18 10:59:24;;;;;;;;;;;;;;;-142.75;75.08;77708.22;5086764;28;19923;-63
2023/05/18 11:01:51;;;;;;;;;;;;;;;-142.75;74.62;77698.38;5093304;28;19924;-65
2023/05/18 11:04:21;;;;;;;;;;;;;;;-142.75;76.30;77637.34;5087695;28;20137;-66
2023/05/18 11:06:53;;;;;;;;;;;;;;;-142.75;75.60;77653.09;5087929;28;20319;-65
2023/05/18 11:09:22;;;;;;;;;;;;;;;-142.75;72.16;77694.44;5096312;28;20394;-63
2023/05/18 11:11:52;;;;;;;;;;;;;;;-142.75;75.85;77635.38;5088065;28;19916;-63
2023/05/18 11:14:25;;;;;;;;;;;;;;;-142.75;74.17;77627.50;5087453;28;19916;-64
2023/05/18 11:16:51;;;;;;;;;;;;;;;-142.75;74.27;77586.16;5090969;28;19916;-63
2023/05/18 11:19:16;;;;;;;;;;;;;;;-142.75;69.87;77660.97;5087212;28;20127;-64
2023/05/18 11:21:41;;;;;;;;;;;;;;;-142.75;73.61;77698.38;5089048;28;19922;-65
2023/05/18 11:24:09;;;;;;;;;;;;;;;-142.75;77.80;77635.38;5092969;28;19916;-64
2023/05/18 11:27:02;;;;;;;;;;;;;;;-142.75;75.41;77645.22;5089588;28;20001;-65
2023/05/18 11:29:34;;;;;;;;;;;;;;;-142.75;74.97;77682.63;5062444;28;19922;-62
2023/05/18 11:31:59;;;;;;;;;;;;;;;-142.75;74.39;77657.03;5086916;28;19923;-62
2023/05/18 11:34:34;;;;;;;;;;;;;;;-142.75;74.80;77635.38;5085346;28;21050;-62
2023/05/18 11:37:00;;;;;;;;;;;;;;;-142.75;74.14;77637.34;5086555;28;20434;-62
2023/05/18 11:39:26;;;;;;;;;;;;;;;-142.75;75.27;77657.03;5086891;28;19924;-63
2023/05/18 11:42:01;;;;;;;;;;;;;;;-142.75;71.07;77718.06;5087391;28;19950;-63
2023/05/18 11:44:27;;;;;;;;;;;;;;;-142.75;70.17;77690.50;5086247;28;19934;-63
2023/05/18 11:46:59;;;;;;;;;;;;;;;-142.75;71.69;77767.31;5085502;28;19920;-61
2023/05/18 11:49:25;;;;;;;;;;;;;;;-142.75;74.11;77676.72;5086796;28;19977;-65
2023/05/18 11:51:59;;;;;;;;;;;;;;;-142.75;74.57;77659.00;5085258;28;20402;-64
2023/05/18 11:54:25;;;;;;;;;;;;;;;-142.75;76.09;77605.84;5085789;28;20383;-65
2023/05/18 11:56:54;;;;;;;;;;;;;;;-142.75;71.73;77651.13;5086057;28;19920;-62
2023/05/18 11:59:32;;;;;;;;;;;;;;;-142.75;73.60;77657.03;5086398;28;20023;-64
2023/05/18 12:01:59;;;;;;;;;;;;;;;-142.75;72.30;77660.97;5086119;28;19922;-63
2023/05/18 12:04:25;;;;;;;;;;;;;;;-142.75;71.96;77668.84;5088599;28;19924;-64
2023/05/18 12:06:51;;;;;;;;;;;;;;;-142.75;72.41;77672.78;5091724;28;19916;-66
2023/05/18 12:09:17;;;;;;;;;;;;;;;-142.75;74.18;77613.72;5085853;28;19916;-63
2023/05/18 12:11:42;;;;;;;;;;;;;;;-142.75;71.04;77657.03;5087061;28;19934;-64
2023/05/18 12:14:08;;;;;;;;;;;;;;;-142.75;69.05;77596.00;5086243;28;19923;-66
2023/05/18 12:16:35;;;;;;;;;;;;;;;-142.75;70.06;77572.38;5086036;28;19916;-64